sensor_id;sensor_type;location;lat;lon;timestamp;pressure;altitude;pressure_sealevel;temperature;humidity
10115;BME280;5097;43.260;27.812;2022-08-01T00:01:54;99595.00;;;20.62;92.78
10115;BME280;5097;43.260;27.812;2022-08-01T00:04:38;99580.88;;;20.59;92.26
10115;BME280;5097;43.260;27.812;2022-08-01T00:07:24;99601.72;;;20.66;91.67
10115;BME280;5097;43.260;27.812;2022-08-01T00:10:10;99593.09;;;20.54;90.82
10115;BME280;5097;43.260;27.812;2022-08-01T00:12:54;99578.53;;;20.30;91.75
10115;BME280;5097;43.260;27.812;2022-08-01T00:15:38;99587.63;;;20.37;90.86
10115;BME280;5097;43.260;27.812;2022-08-01T00:18:25;99586.03;;;20.53;90.92
10115;BME280;5097;43.260;27.812;2022-08-01T00:21:09;99587.72;;;20.54;90.21
10115;BME280;5097;43.260;27.812;2022-08-01T00:23:54;99445.34;;;19.60;89.97
10115;BME280;5097;43.260;27.812;2022-08-01T00:26:38;99580.28;;;20.39;90.33
10115;BME280;5097;43.260;27.812;2022-08-01T00:29:24;99587.63;;;20.37;89.95
10115;BME280;5097;43.260;27.812;2022-08-01T00:32:30;99587.00;;;20.17;90.31
10115;BME280;5097;43.260;27.812;2022-08-01T00:35:14;99565.66;;;20.07;89.25
10115;BME280;5097;43.260;27.812;2022-08-01T00:37:58;99568.69;;;20.13;89.31
10115;BME280;5097;43.260;27.812;2022-08-01T00:40:44;99571.31;;;20.04;89.12
10115;BME280;5097;43.260;27.812;2022-08-01T00:43:28;99564.59;;;20.00;89.98
10115;BME280;5097;43.260;27.812;2022-08-01T00:46:12;99562.28;;;20.05;89.90
10115;BME280;5097;43.260;27.812;2022-08-01T00:48:56;99570.38;;;20.14;89.62
10115;BME280;5097;43.260;27.812;2022-08-01T00:51:41;99564.81;;;20.07;88.80
10115;BME280;5097;43.260;27.812;2022-08-01T00:54:26;99565.22;;;19.94;86.40
10115;BME280;5097;43.260;27.812;2022-08-01T00:57:11;99550.66;;;19.79;88.21
10115;BME280;5097;43.260;27.812;2022-08-01T00:59:56;99560.53;;;19.78;88.52
10115;BME280;5097;43.260;27.812;2022-08-01T01:02:41;99553.25;;;19.70;87.95
10115;BME280;5097;43.260;27.812;2022-08-01T01:05:26;99548.91;;;19.69;85.91
10115;BME280;5097;43.260;27.812;2022-08-01T01:08:14;99550.13;;;19.75;85.51
10115;BME280;5097;43.260;27.812;2022-08-01T01:11:04;99536.50;;;19.50;85.51
10115;BME280;5097;43.260;27.812;2022-08-01T01:13:56;99551.75;;;19.86;85.89
10115;BME280;5097;43.260;27.812;2022-08-01T01:16:42;99545.16;;;19.62;83.92
10115;BME280;5097;43.260;27.812;2022-08-01T01:19:30;99549.78;;;19.52;85.24
10115;BME280;5097;43.260;27.812;2022-08-01T01:25:40;99559.41;;;19.81;81.12
10115;BME280;5097;43.260;27.812;2022-08-01T01:28:32;99551.28;;;19.72;83.12
10115;BME280;5097;43.260;27.812;2022-08-01T01:31:19;99549.44;;;19.73;83.67
10115;BME280;5097;43.260;27.812;2022-08-01T01:34:05;99561.09;;;19.46;82.56
10115;BME280;5097;43.260;27.812;2022-08-01T01:36:52;99564.59;;;19.64;80.82
10115;BME280;5097;43.260;27.812;2022-08-01T01:39:38;99554.44;;;19.68;81.51
10115;BME280;5097;43.260;27.812;2022-08-01T01:42:36;99564.78;;;19.81;81.08
10115;BME280;5097;43.260;27.812;2022-08-01T01:45:21;99570.84;;;19.83;81.75
10115;BME280;5097;43.260;27.812;2022-08-01T01:48:07;99567.50;;;19.53;79.99
10115;BME280;5097;43.260;27.812;2022-08-01T01:50:53;99560.50;;;19.52;82.19
10115;BME280;5097;43.260;27.812;2022-08-01T01:53:39;99559.41;;;19.45;83.28
10115;BME280;5097;43.260;27.812;2022-08-01T01:56:26;99550.50;;;19.26;82.55
10115;BME280;5097;43.260;27.812;2022-08-01T01:59:11;99563.22;;;19.24;83.01
10115;BME280;5097;43.260;27.812;2022-08-01T02:01:57;99557.25;;;19.30;80.80
10115;BME280;5097;43.260;27.812;2022-08-01T02:04:53;99551.72;;;19.14;79.97
10115;BME280;5097;43.260;27.812;2022-08-01T02:07:38;99561.53;;;19.23;79.03
10115;BME280;5097;43.260;27.812;2022-08-01T02:10:24;99564.00;;;19.34;80.36
10115;BME280;5097;43.260;27.812;2022-08-01T02:13:10;99530.47;;;19.12;76.04
10115;BME280;5097;43.260;27.812;2022-08-01T02:15:54;99567.97;;;19.30;74.40
10115;BME280;5097;43.260;27.812;2022-08-01T02:18:42;99562.47;;;19.32;75.18
10115;BME280;5097;43.260;27.812;2022-08-01T02:21:30;99556.97;;;19.33;75.86
10115;BME280;5097;43.260;27.812;2022-08-01T02:24:34;99551.56;;;18.97;73.15
10115;BME280;5097;43.260;27.812;2022-08-01T02:27:25;99544.56;;;18.86;73.68
10115;BME280;5097;43.260;27.812;2022-08-01T02:30:13;99551.56;;;18.97;73.19
10115;BME280;5097;43.260;27.812;2022-08-01T02:33:00;99548.28;;;18.75;73.78
10115;BME280;5097;43.260;27.812;2022-08-01T02:35:54;99547.88;;;18.70;73.94
10115;BME280;5097;43.260;27.812;2022-08-01T02:39:06;99558.09;;;18.85;74.19
10115;BME280;5097;43.260;27.812;2022-08-01T02:41:55;99556.72;;;18.71;74.43
10115;BME280;5097;43.260;27.812;2022-08-01T02:44:41;99558.28;;;19.01;73.90
10115;BME280;5097;43.260;27.812;2022-08-01T02:47:27;99554.16;;;19.07;75.81
10115;BME280;5097;43.260;27.812;2022-08-01T02:50:14;99569.25;;;19.08;74.03
10115;BME280;5097;43.260;27.812;2022-08-01T02:52:59;99578.09;;;19.08;73.49
10115;BME280;5097;43.260;27.812;2022-08-01T02:55:46;99577.13;;;19.09;72.83
10115;BME280;5097;43.260;27.812;2022-08-01T02:58:31;99562.81;;;19.01;73.14
10115;BME280;5097;43.260;27.812;2022-08-01T03:01:17;99531.44;;;18.93;71.05
10115;BME280;5097;43.260;27.812;2022-08-01T03:04:03;99560.88;;;18.93;70.34
10115;BME280;5097;43.260;27.812;2022-08-01T03:06:48;99579.13;;;19.07;69.30
10115;BME280;5097;43.260;27.812;2022-08-01T03:09:37;99579.22;;;19.16;69.86
10115;BME280;5097;43.260;27.812;2022-08-01T03:12:26;99570.16;;;19.17;69.64
10115;BME280;5097;43.260;27.812;2022-08-01T03:15:12;99581.09;;;19.05;70.69
10115;BME280;5097;43.260;27.812;2022-08-01T03:17:57;99564.41;;;18.84;69.96
10115;BME280;5097;43.260;27.812;2022-08-01T03:20:43;99580.00;;;18.98;70.03
10115;BME280;5097;43.260;27.812;2022-08-01T03:23:30;99597.91;;;18.88;69.15
10115;BME280;5097;43.260;27.812;2022-08-01T03:26:19;99576.78;;;18.95;69.85
10115;BME280;5097;43.260;27.812;2022-08-01T03:29:06;99588.41;;;19.03;70.57
10115;BME280;5097;43.260;27.812;2022-08-01T03:31:51;99580.44;;;19.21;67.54
10115;BME280;5097;43.260;27.812;2022-08-01T03:34:35;99584.19;;;19.29;69.51
10115;BME280;5097;43.260;27.812;2022-08-01T03:37:22;99592.25;;;19.47;70.97
10115;BME280;5097;43.260;27.812;2022-08-01T03:40:10;99595.66;;;19.21;69.58
10115;BME280;5097;43.260;27.812;2022-08-01T03:42:59;99590.19;;;19.13;68.65
10115;BME280;5097;43.260;27.812;2022-08-01T03:45:50;99585.44;;;19.34;68.09
10115;BME280;5097;43.260;27.812;2022-08-01T03:48:40;99588.97;;;19.07;69.26
10115;BME280;5097;43.260;27.812;2022-08-01T03:51:25;99551.63;;;18.77;68.73
10115;BME280;5097;43.260;27.812;2022-08-01T03:54:10;99593.66;;;19.23;67.17
10115;BME280;5097;43.260;27.812;2022-08-01T03:56:54;99582.78;;;19.24;67.88
10115;BME280;5097;43.260;27.812;2022-08-01T03:59:39;99579.06;;;19.35;65.66
10115;BME280;5097;43.260;27.812;2022-08-01T04:02:25;99580.81;;;19.45;65.87
10115;BME280;5097;43.260;27.812;2022-08-01T04:05:10;99582.75;;;19.34;66.95
10115;BME280;5097;43.260;27.812;2022-08-01T04:07:54;99578.31;;;19.25;67.34
10115;BME280;5097;43.260;27.812;2022-08-01T04:10:39;99577.75;;;19.39;67.29
10115;BME280;5097;43.260;27.812;2022-08-01T04:13:23;99578.00;;;19.46;65.31
10115;BME280;5097;43.260;27.812;2022-08-01T04:16:10;99578.22;;;19.53;65.69
10115;BME280;5097;43.260;27.812;2022-08-01T04:18:56;99575.34;;;19.64;64.62
10115;BME280;5097;43.260;27.812;2022-08-01T04:21:40;99560.94;;;19.65;62.75
10115;BME280;5097;43.260;27.812;2022-08-01T04:24:25;99565.06;;;19.77;63.40
10115;BME280;5097;43.260;27.812;2022-08-01T04:27:14;99565.13;;;20.30;61.26
10115;BME280;5097;43.260;27.812;2022-08-01T04:30:24;99560.94;;;20.01;63.27
10115;BME280;5097;43.260;27.812;2022-08-01T04:33:10;99542.59;;;20.15;61.85
10115;BME280;5097;43.260;27.812;2022-08-01T04:35:58;99569.13;;;20.26;63.01
10115;BME280;5097;43.260;27.812;2022-08-01T04:38:49;99506.88;;;19.88;61.70
10115;BME280;5097;43.260;27.812;2022-08-01T04:41:34;99552.00;;;20.19;60.56
10115;BME280;5097;43.260;27.812;2022-08-01T04:44:20;99543.75;;;20.73;60.64
10115;BME280;5097;43.260;27.812;2022-08-01T04:47:05;99539.69;;;20.69;61.58
10115;BME280;5097;43.260;27.812;2022-08-01T04:49:50;99571.13;;;20.85;59.66
10115;BME280;5097;43.260;27.812;2022-08-01T04:52:37;99541.81;;;20.65;61.07
10115;BME280;5097;43.260;27.812;2022-08-01T04:55:24;99525.72;;;20.65;60.07
10115;BME280;5097;43.260;27.812;2022-08-01T04:58:09;99518.78;;;20.81;59.47
10115;BME280;5097;43.260;27.812;2022-08-01T05:01:02;99526.84;;;20.81;60.30
10115;BME280;5097;43.260;27.812;2022-08-01T05:03:46;99538.13;;;20.92;59.52
10115;BME280;5097;43.260;27.812;2022-08-01T05:06:30;99559.81;;;21.16;58.32
10115;BME280;5097;43.260;27.812;2022-08-01T05:09:16;99543.81;;;20.98;57.64
10115;BME280;5097;43.260;27.812;2022-08-01T05:12:01;99540.09;;;20.90;57.95
10115;BME280;5097;43.260;27.812;2022-08-01T05:14:46;99569.91;;;21.22;58.63
10115;BME280;5097;43.260;27.812;2022-08-01T05:17:30;99518.00;;;21.05;57.31
10115;BME280;5097;43.260;27.812;2022-08-01T05:20:14;99526.59;;;21.33;57.64
10115;BME280;5097;43.260;27.812;2022-08-01T05:22:58;99563.94;;;21.86;58.08
10115;BME280;5097;43.260;27.812;2022-08-01T05:25:44;99571.00;;;22.12;57.74
10115;BME280;5097;43.260;27.812;2022-08-01T05:28:39;99531.19;;;21.57;55.61
10115;BME280;5097;43.260;27.812;2022-08-01T05:31:23;99589.31;;;22.16;55.58
10115;BME280;5097;43.260;27.812;2022-08-01T05:34:07;99579.41;;;22.08;54.82
10115;BME280;5097;43.260;27.812;2022-08-01T05:36:56;99544.44;;;22.08;55.05
10115;BME280;5097;43.260;27.812;2022-08-01T05:39:40;99546.47;;;21.98;54.48
10115;BME280;5097;43.260;27.812;2022-08-01T05:42:26;99588.13;;;22.35;55.04
10115;BME280;5097;43.260;27.812;2022-08-01T05:45:10;99576.00;;;22.31;55.84
10115;BME280;5097;43.260;27.812;2022-08-01T05:47:54;99580.88;;;22.52;56.33
10115;BME280;5097;43.260;27.812;2022-08-01T05:50:38;99584.53;;;22.59;54.85
10115;BME280;5097;43.260;27.812;2022-08-01T05:53:22;99580.69;;;22.54;53.71
10115;BME280;5097;43.260;27.812;2022-08-01T05:56:06;99578.03;;;22.46;53.41
10115;BME280;5097;43.260;27.812;2022-08-01T05:58:51;99579.00;;;22.53;51.83
10115;BME280;5097;43.260;27.812;2022-08-01T06:01:35;99559.50;;;22.34;52.16
10115;BME280;5097;43.260;27.812;2022-08-01T06:04:20;99576.69;;;22.41;50.39
10115;BME280;5097;43.260;27.812;2022-08-01T06:07:04;99564.22;;;22.49;51.37
10115;BME280;5097;43.260;27.812;2022-08-01T06:09:48;99565.19;;;22.64;52.59
10115;BME280;5097;43.260;27.812;2022-08-01T06:12:32;99569.41;;;22.98;50.67
10115;BME280;5097;43.260;27.812;2022-08-01T06:15:18;99556.66;;;22.92;49.74
10115;BME280;5097;43.260;27.812;2022-08-01T06:18:02;99540.28;;;22.62;50.07
10115;BME280;5097;43.260;27.812;2022-08-01T06:20:47;99528.00;;;22.59;50.61
10115;BME280;5097;43.260;27.812;2022-08-01T06:23:31;99538.06;;;23.14;49.21
10115;BME280;5097;43.260;27.812;2022-08-01T06:26:17;99529.59;;;22.85;48.22
10115;BME280;5097;43.260;27.812;2022-08-01T06:29:02;99555.25;;;23.04;48.63
10115;BME280;5097;43.260;27.812;2022-08-01T06:31:47;99549.78;;;23.21;48.75
10115;BME280;5097;43.260;27.812;2022-08-01T06:34:31;99550.00;;;23.66;47.59
10115;BME280;5097;43.260;27.812;2022-08-01T06:37:15;99430.47;;;22.81;48.69
10115;BME280;5097;43.260;27.812;2022-08-01T06:40:00;99560.75;;;23.42;46.97
10115;BME280;5097;43.260;27.812;2022-08-01T06:42:45;99551.34;;;23.62;47.17
10115;BME280;5097;43.260;27.812;2022-08-01T06:45:29;99525.00;;;23.49;45.76
10115;BME280;5097;43.260;27.812;2022-08-01T06:48:14;99563.50;;;23.57;47.34
10115;BME280;5097;43.260;27.812;2022-08-01T06:50:58;99536.13;;;23.69;47.70
10115;BME280;5097;43.260;27.812;2022-08-01T06:53:51;99556.22;;;23.89;47.15
10115;BME280;5097;43.260;27.812;2022-08-01T06:56:36;99561.91;;;23.95;47.88
10115;BME280;5097;43.260;27.812;2022-08-01T06:59:20;99552.44;;;23.75;46.69
10115;BME280;5097;43.260;27.812;2022-08-01T07:02:04;99545.56;;;23.88;46.22
10115;BME280;5097;43.260;27.812;2022-08-01T07:04:50;99545.44;;;24.04;45.70
10115;BME280;5097;43.260;27.812;2022-08-01T07:07:34;99540.56;;;23.85;45.86
10115;BME280;5097;43.260;27.812;2022-08-01T07:10:18;99537.56;;;23.80;46.65
10115;BME280;5097;43.260;27.812;2022-08-01T07:13:02;99537.28;;;24.13;46.08
10115;BME280;5097;43.260;27.812;2022-08-01T07:15:46;99531.22;;;24.10;46.81
10115;BME280;5097;43.260;27.812;2022-08-01T07:18:30;99536.72;;;24.32;44.99
10115;BME280;5097;43.260;27.812;2022-08-01T07:21:15;99528.72;;;24.39;45.85
10115;BME280;5097;43.260;27.812;2022-08-01T07:24:19;99531.00;;;24.65;43.99
10115;BME280;5097;43.260;27.812;2022-08-01T07:27:04;99518.19;;;24.74;44.99
10115;BME280;5097;43.260;27.812;2022-08-01T07:30:06;99525.88;;;24.70;43.58
10115;BME280;5097;43.260;27.812;2022-08-01T07:32:50;99527.22;;;24.96;44.19
10115;BME280;5097;43.260;27.812;2022-08-01T07:35:34;99522.44;;;24.98;43.83
10115;BME280;5097;43.260;27.812;2022-08-01T07:38:21;99511.69;;;24.68;42.86
10115;BME280;5097;43.260;27.812;2022-08-01T07:41:05;99526.53;;;25.09;43.29
10115;BME280;5097;43.260;27.812;2022-08-01T07:43:49;99522.22;;;25.15;43.02
10115;BME280;5097;43.260;27.812;2022-08-01T07:46:41;99516.41;;;24.96;44.02
10115;BME280;5097;43.260;27.812;2022-08-01T07:49:24;99536.50;;;25.30;42.94
10115;BME280;5097;43.260;27.812;2022-08-01T07:52:09;99518.91;;;24.98;42.42
10115;BME280;5097;43.260;27.812;2022-08-01T07:54:54;99523.69;;;25.17;42.16
10115;BME280;5097;43.260;27.812;2022-08-01T07:57:38;99523.59;;;24.89;41.50
10115;BME280;5097;43.260;27.812;2022-08-01T08:00:22;99515.66;;;25.24;41.62
10115;BME280;5097;43.260;27.812;2022-08-01T08:03:07;99521.69;;;25.26;41.27
10115;BME280;5097;43.260;27.812;2022-08-01T08:05:51;99524.75;;;25.59;41.72
10115;BME280;5097;43.260;27.812;2022-08-01T08:08:41;99460.06;;;25.15;40.68
10115;BME280;5097;43.260;27.812;2022-08-01T08:11:27;99523.28;;;25.57;40.41
10115;BME280;5097;43.260;27.812;2022-08-01T08:14:12;99489.25;;;25.26;41.78
10115;BME280;5097;43.260;27.812;2022-08-01T08:16:56;99527.34;;;25.46;40.97
10115;BME280;5097;43.260;27.812;2022-08-01T08:19:40;99492.56;;;25.65;40.61
10115;BME280;5097;43.260;27.812;2022-08-01T08:22:24;99505.09;;;25.72;39.08
10115;BME280;5097;43.260;27.812;2022-08-01T08:25:08;99537.44;;;25.59;39.34
10115;BME280;5097;43.260;27.812;2022-08-01T08:27:55;99531.13;;;26.02;40.03
10115;BME280;5097;43.260;27.812;2022-08-01T08:30:39;99538.78;;;25.70;40.01
10115;BME280;5097;43.260;27.812;2022-08-01T08:33:23;99537.97;;;25.69;40.72
10115;BME280;5097;43.260;27.812;2022-08-01T08:36:07;99538.81;;;25.98;39.22
10115;BME280;5097;43.260;27.812;2022-08-01T08:38:51;99533.38;;;26.20;39.62
10115;BME280;5097;43.260;27.812;2022-08-01T08:41:35;99541.78;;;26.32;39.74
10115;BME280;5097;43.260;27.812;2022-08-01T08:44:21;99505.72;;;25.96;39.93
10115;BME280;5097;43.260;27.812;2022-08-01T08:47:05;99532.19;;;26.29;38.38
10115;BME280;5097;43.260;27.812;2022-08-01T08:49:53;99548.47;;;26.36;38.43
10115;BME280;5097;43.260;27.812;2022-08-01T08:52:38;99547.63;;;26.35;39.04
10115;BME280;5097;43.260;27.812;2022-08-01T08:55:23;99506.56;;;26.32;39.15
10115;BME280;5097;43.260;27.812;2022-08-01T08:58:10;99545.31;;;26.67;39.18
10115;BME280;5097;43.260;27.812;2022-08-01T09:00:56;99507.34;;;26.54;37.92
10115;BME280;5097;43.260;27.812;2022-08-01T09:03:40;99529.59;;;26.91;38.24
10115;BME280;5097;43.260;27.812;2022-08-01T09:06:24;99507.56;;;26.59;38.77
10115;BME280;5097;43.260;27.812;2022-08-01T09:09:09;99528.81;;;27.04;38.12
10115;BME280;5097;43.260;27.812;2022-08-01T09:11:55;99500.47;;;27.20;37.62
10115;BME280;5097;43.260;27.812;2022-08-01T09:14:44;99536.34;;;27.22;37.34
10115;BME280;5097;43.260;27.812;2022-08-01T09:17:39;99514.81;;;27.00;37.62
10115;BME280;5097;43.260;27.812;2022-08-01T09:20:23;99515.66;;;26.94;37.72
10115;BME280;5097;43.260;27.812;2022-08-01T09:23:30;99506.59;;;26.73;35.86
10115;BME280;5097;43.260;27.812;2022-08-01T09:26:16;99515.38;;;26.75;36.04
10115;BME280;5097;43.260;27.812;2022-08-01T09:29:04;99525.00;;;26.85;35.77
10115;BME280;5097;43.260;27.812;2022-08-01T09:31:48;99504.94;;;26.72;35.16
10115;BME280;5097;43.260;27.812;2022-08-01T09:34:36;99521.28;;;26.92;36.24
10115;BME280;5097;43.260;27.812;2022-08-01T09:37:29;99503.41;;;27.25;35.52
10115;BME280;5097;43.260;27.812;2022-08-01T09:40:18;99508.91;;;27.58;36.42
10115;BME280;5097;43.260;27.812;2022-08-01T09:43:10;99512.00;;;27.49;35.91
10115;BME280;5097;43.260;27.812;2022-08-01T09:45:57;99513.31;;;27.66;35.89
10115;BME280;5097;43.260;27.812;2022-08-01T09:48:55;99501.38;;;27.67;35.50
10115;BME280;5097;43.260;27.812;2022-08-01T09:51:40;99476.72;;;27.82;35.04
10115;BME280;5097;43.260;27.812;2022-08-01T09:54:43;99507.56;;;28.48;34.73
10115;BME280;5097;43.260;27.812;2022-08-01T09:57:36;99518.06;;;28.24;34.14
10115;BME280;5097;43.260;27.812;2022-08-01T10:00:21;99509.94;;;28.18;33.37
10115;BME280;5097;43.260;27.812;2022-08-01T10:03:26;99505.09;;;28.92;33.26
10115;BME280;5097;43.260;27.812;2022-08-01T10:06:21;99510.91;;;28.43;33.57
10115;BME280;5097;43.260;27.812;2022-08-01T10:09:08;99518.91;;;28.18;33.74
10115;BME280;5097;43.260;27.812;2022-08-01T10:11:51;99508.47;;;28.08;33.83
10115;BME280;5097;43.260;27.812;2022-08-01T10:14:39;99515.50;;;28.50;33.13
10115;BME280;5097;43.260;27.812;2022-08-01T10:17:27;99526.84;;;28.26;33.26
10115;BME280;5097;43.260;27.812;2022-08-01T10:20:32;99522.59;;;28.51;33.64
10115;BME280;5097;43.260;27.812;2022-08-01T10:23:19;99515.53;;;28.36;34.01
10115;BME280;5097;43.260;27.812;2022-08-01T10:26:05;99524.63;;;28.62;34.76
10115;BME280;5097;43.260;27.812;2022-08-01T10:28:50;99488.28;;;28.63;33.75
10115;BME280;5097;43.260;27.812;2022-08-01T10:31:34;99514.34;;;29.23;32.06
10115;BME280;5097;43.260;27.812;2022-08-01T10:34:22;99513.19;;;28.99;32.32
10115;BME280;5097;43.260;27.812;2022-08-01T10:37:10;99518.78;;;29.10;32.59
10115;BME280;5097;43.260;27.812;2022-08-01T10:39:57;99515.63;;;28.75;32.92
10115;BME280;5097;43.260;27.812;2022-08-01T10:43:03;99509.78;;;29.17;32.24
10115;BME280;5097;43.260;27.812;2022-08-01T10:45:47;99513.63;;;29.02;32.51
10115;BME280;5097;43.260;27.812;2022-08-01T10:48:40;99514.19;;;30.00;31.35
10115;BME280;5097;43.260;27.812;2022-08-01T10:51:27;99513.91;;;29.58;30.54
10115;BME280;5097;43.260;27.812;2022-08-01T10:54:38;99503.69;;;30.48;30.91
10115;BME280;5097;43.260;27.812;2022-08-01T10:57:43;99518.16;;;30.23;30.33
10115;BME280;5097;43.260;27.812;2022-08-01T11:00:35;99516.19;;;29.61;31.94
10115;BME280;5097;43.260;27.812;2022-08-01T11:03:32;99507.25;;;30.23;31.32
10115;BME280;5097;43.260;27.812;2022-08-01T11:06:51;99499.56;;;30.20;30.50
10115;BME280;5097;43.260;27.812;2022-08-01T11:09:41;99498.63;;;29.82;30.85
10115;BME280;5097;43.260;27.812;2022-08-01T11:12:38;99506.00;;;29.18;31.86
10115;BME280;5097;43.260;27.812;2022-08-01T11:15:25;99492.94;;;29.90;31.09
10115;BME280;5097;43.260;27.812;2022-08-01T11:18:31;99496.25;;;29.92;30.44
10115;BME280;5097;43.260;27.812;2022-08-01T11:21:19;99488.88;;;30.18;29.89
10115;BME280;5097;43.260;27.812;2022-08-01T11:24:54;99482.50;;;30.43;30.47
10115;BME280;5097;43.260;27.812;2022-08-01T11:27:43;99482.81;;;30.16;30.54
10115;BME280;5097;43.260;27.812;2022-08-01T11:30:31;99493.78;;;30.28;30.04
10115;BME280;5097;43.260;27.812;2022-08-01T11:33:16;99487.94;;;29.30;30.98
10115;BME280;5097;43.260;27.812;2022-08-01T11:36:18;99481.09;;;29.53;31.29
10115;BME280;5097;43.260;27.812;2022-08-01T11:39:23;99494.63;;;29.85;30.42
10115;BME280;5097;43.260;27.812;2022-08-01T11:42:18;99466.09;;;30.13;30.55
10115;BME280;5097;43.260;27.812;2022-08-01T11:45:03;99482.59;;;30.18;29.89
10115;BME280;5097;43.260;27.812;2022-08-01T11:47:49;99474.97;;;30.64;29.42
10115;BME280;5097;43.260;27.812;2022-08-01T11:50:35;99476.78;;;30.51;28.97
10115;BME280;5097;43.260;27.812;2022-08-01T11:53:21;99457.13;;;30.80;29.80
10115;BME280;5097;43.260;27.812;2022-08-01T11:56:08;99485.66;;;30.47;30.40
10115;BME280;5097;43.260;27.812;2022-08-01T11:58:58;99475.16;;;30.50;29.67
10115;BME280;5097;43.260;27.812;2022-08-01T12:01:42;99360.28;;;29.35;29.49
10115;BME280;5097;43.260;27.812;2022-08-01T12:04:44;99467.25;;;30.91;28.38
10115;BME280;5097;43.260;27.812;2022-08-01T12:07:30;99458.56;;;31.13;28.10
10115;BME280;5097;43.260;27.812;2022-08-01T12:10:18;99456.19;;;31.04;27.79
10115;BME280;5097;43.260;27.812;2022-08-01T12:13:04;99446.19;;;31.52;27.83
10115;BME280;5097;43.260;27.812;2022-08-01T12:15:49;99456.38;;;31.45;27.69
10115;BME280;5097;43.260;27.812;2022-08-01T12:18:38;99463.47;;;31.34;27.88
10115;BME280;5097;43.260;27.812;2022-08-01T12:21:23;99465.03;;;30.69;28.56
10115;BME280;5097;43.260;27.812;2022-08-01T12:24:07;99461.69;;;30.67;29.18
10115;BME280;5097;43.260;27.812;2022-08-01T12:26:52;99457.00;;;30.37;28.49
10115;BME280;5097;43.260;27.812;2022-08-01T12:29:38;99443.25;;;30.14;29.07
10115;BME280;5097;43.260;27.812;2022-08-01T12:32:25;99455.25;;;29.62;29.67
10115;BME280;5097;43.260;27.812;2022-08-01T12:35:18;99452.31;;;29.89;30.73
10115;BME280;5097;43.260;27.812;2022-08-01T12:38:06;99450.97;;;29.98;29.66
10115;BME280;5097;43.260;27.812;2022-08-01T12:40:51;99429.03;;;30.12;29.73
10115;BME280;5097;43.260;27.812;2022-08-01T12:43:37;99426.75;;;30.27;30.34
10115;BME280;5097;43.260;27.812;2022-08-01T12:46:21;99432.34;;;30.14;30.62
10115;BME280;5097;43.260;27.812;2022-08-01T12:49:08;99442.81;;;30.17;29.27
10115;BME280;5097;43.260;27.812;2022-08-01T12:51:54;99445.81;;;30.08;30.11
10115;BME280;5097;43.260;27.812;2022-08-01T12:58:05;99432.50;;;30.00;30.35
10115;BME280;5097;43.260;27.812;2022-08-01T13:01:05;99439.75;;;29.88;29.57
10115;BME280;5097;43.260;27.812;2022-08-01T13:03:57;99428.34;;;29.72;30.29
10115;BME280;5097;43.260;27.812;2022-08-01T13:06:42;99429.84;;;29.68;30.01
10115;BME280;5097;43.260;27.812;2022-08-01T13:09:26;99417.56;;;29.40;30.83
10115;BME280;5097;43.260;27.812;2022-08-01T13:12:10;99428.44;;;29.84;30.15
10115;BME280;5097;43.260;27.812;2022-08-01T13:14:55;99421.28;;;30.27;29.20
10115;BME280;5097;43.260;27.812;2022-08-01T13:17:40;99420.66;;;30.62;30.50
10115;BME280;5097;43.260;27.812;2022-08-01T13:20:30;99405.84;;;30.58;29.96
10115;BME280;5097;43.260;27.812;2022-08-01T13:23:18;99431.63;;;31.04;29.55
10115;BME280;5097;43.260;27.812;2022-08-01T13:26:37;99422.75;;;31.21;29.52
10115;BME280;5097;43.260;27.812;2022-08-01T13:29:28;99393.59;;;32.04;28.11
10115;BME280;5097;43.260;27.812;2022-08-01T13:32:13;99390.25;;;32.26;27.66
10115;BME280;5097;43.260;27.812;2022-08-01T13:35:13;99422.44;;;32.24;28.82
10115;BME280;5097;43.260;27.812;2022-08-01T13:37:57;99432.09;;;32.55;27.84
10115;BME280;5097;43.260;27.812;2022-08-01T13:40:41;99425.38;;;32.63;28.25
10115;BME280;5097;43.260;27.812;2022-08-01T13:43:25;99422.19;;;33.12;27.33
10115;BME280;5097;43.260;27.812;2022-08-01T13:46:28;99426.56;;;32.38;27.63
10115;BME280;5097;43.260;27.812;2022-08-01T13:49:13;99433.69;;;32.68;28.18
10115;BME280;5097;43.260;27.812;2022-08-01T13:51:59;99422.75;;;32.68;28.02
10115;BME280;5097;43.260;27.812;2022-08-01T13:54:44;99416.53;;;31.80;28.92
10115;BME280;5097;43.260;27.812;2022-08-01T13:57:28;99423.97;;;32.20;27.92
10115;BME280;5097;43.260;27.812;2022-08-01T14:00:18;99409.81;;;31.04;29.07
10115;BME280;5097;43.260;27.812;2022-08-01T14:03:03;99415.78;;;31.25;29.77
10115;BME280;5097;43.260;27.812;2022-08-01T14:05:47;99421.81;;;31.15;28.91
10115;BME280;5097;43.260;27.812;2022-08-01T14:08:42;99427.41;;;30.90;29.68
10115;BME280;5097;43.260;27.812;2022-08-01T14:11:29;99429.94;;;31.46;30.09
10115;BME280;5097;43.260;27.812;2022-08-01T14:14:18;99421.06;;;31.62;29.00
10115;BME280;5097;43.260;27.812;2022-08-01T14:17:02;99398.50;;;31.01;30.22
10115;BME280;5097;43.260;27.812;2022-08-01T14:19:46;99433.47;;;31.34;30.70
10115;BME280;5097;43.260;27.812;2022-08-01T14:22:30;99434.91;;;30.95;30.93
10115;BME280;5097;43.260;27.812;2022-08-01T14:25:16;99414.19;;;30.26;31.49
10115;BME280;5097;43.260;27.812;2022-08-01T14:28:21;99422.34;;;30.63;31.73
10115;BME280;5097;43.260;27.812;2022-08-01T14:31:06;99420.63;;;31.11;30.96
10115;BME280;5097;43.260;27.812;2022-08-01T14:33:50;99436.63;;;30.77;32.38
10115;BME280;5097;43.260;27.812;2022-08-01T14:36:34;99433.19;;;31.12;32.60
10115;BME280;5097;43.260;27.812;2022-08-01T14:39:20;99442.06;;;31.07;33.01
10115;BME280;5097;43.260;27.812;2022-08-01T14:42:08;99446.41;;;30.97;34.16
10115;BME280;5097;43.260;27.812;2022-08-01T14:44:52;99440.31;;;30.83;35.21
10115;BME280;5097;43.260;27.812;2022-08-01T14:47:36;99442.78;;;30.35;35.21
10115;BME280;5097;43.260;27.812;2022-08-01T14:50:20;99440.53;;;30.51;35.70
10115;BME280;5097;43.260;27.812;2022-08-01T14:53:04;99440.97;;;30.29;35.86
10115;BME280;5097;43.260;27.812;2022-08-01T14:55:48;99452.22;;;30.33;35.66